Flight Track Log - Related Links

Times and Time Zones

All times are in EDT time to prevent confusion due to time zone crossing. See the N53NW flight status page for this flight to view local times or setup timezone preferences in your user account.

Time Position Orientation Groundspeed Altitude Reporting Facility
EDT Latitude Longitude Course Direction KTS MPH feet Rate Location/Type
Thu 10:37:31 AM 40.8500 -74.3667 57° Northeast 232 267 2,500  Level New York TRACON
Thu 10:38:31 AM 40.8833 -74.3000 57° Northeast 272 313 6,000 3,200 Climbing New York TRACON
Thu 10:39:31 AM 40.9333 -74.3833 308° West 281 323 8,900 2,300 Climbing New York TRACON
Thu 10:40:31 AM 40.9000 -74.4667 242° Southwest 271 312 10,600 2,179 Climbing New York TRACON
Thu 10:42:41 AM 40.8264 -74.6706 245° Southwest 301 346 15,800 2,105 Climbing New York Center
Thu 10:43:42 AM 40.7850 -74.7861 245° Southwest 311 358 17,300 1,574 Climbing New York Center
Thu 10:44:43 AM 40.7478 -74.8964 246° West 324 373 19,000 836 Climbing New York Center
Thu 10:45:44 AM 40.7086 -75.0061 245° Southwest 330 380 19,000  Level New York Center
Thu 10:46:42 AM 40.6694 -75.1050 242° Southwest 330 380 19,000  Level New York Center
Thu 10:47:41 AM 40.6239 -75.2086 240° Southwest 336 387 19,000  Level New York Center
Thu 10:48:42 AM 40.5694 -75.3253 238° Southwest 343 395 19,000  Level New York Center
Thu 10:49:42 AM 40.5239 -75.4261 239° Southwest 338 389 19,000  Level New York Center
Thu 10:50:42 AM 40.4761 -75.5294 239° Southwest 338 389 19,000  Level New York Center
Thu 10:51:41 AM 40.4347 -75.6219 240° Southwest 328 377 19,000  Level New York Center
Thu 10:52:42 AM 40.3867 -75.7247 238° Southwest 328 377 19,000  Level New York Center
Thu 10:53:43 AM 40.3319 -75.8406 238° Southwest 335 386 19,000  Level New York Center
Thu 10:54:43 AM 40.2833 -75.9458 239° Southwest 335 386 19,000  Level New York Center
Thu 10:55:40 AM 40.2397 -76.0406 239° Southwest 335 386 19,000  Level New York Center
Thu 10:56:41 AM 40.1844 -76.1533 237° Southwest 335 386 19,000 -344 Level New York Center
Thu 10:57:42 AM 40.1403 -76.2531 240° Southwest 335 386 18,300 -1,140 Descending New York Center
Thu 10:58:42 AM 40.0894 -76.3603 238° Southwest 335 386 16,700 -1,475 Descending New York Center
Thu 10:59:44 AM 40.0500 -76.4467 239° Southwest 324 373 15,300 -1,563 Descending New York Center
Thu 11:00:41 AM 40.0033 -76.5458 238° Southwest 307 353 13,600 -1,613 Descending New York Center
Thu 11:01:43 AM 39.9806 -76.6281 250° West 285 328 12,100 -443 Descending New York Center
Thu 11:04:04 AM 39.9333 -76.8500 255° West 284 327 12,100 -87 Level Potomac TRACON
Thu 11:05:10 AM 39.8667 -76.9333 224° Southwest 285 328 11,800 -810 Descending Potomac TRACON
Thu 11:06:10 AM 39.8167 -77.0167 232° Southwest 278 320 10,400 -900 Descending Potomac TRACON
Thu 11:07:10 AM 39.7667 -77.1000 232° Southwest 278 320 10,000 -350 Descending Potomac TRACON
Thu 11:08:10 AM 39.7167 -77.1667 226° Southwest 284 327 9,700 -900 Descending Potomac TRACON
Thu 11:09:10 AM 39.6667 -77.2500 232° Southwest 265 305 8,200 -1,357 Descending Potomac TRACON
Thu 11:10:05 AM 39.6333 -77.3167 237° Southwest 265 305 7,100 -1,096 Descending Potomac TRACON
Thu 11:11:05 AM 39.5667 -77.3333 191° South 276 318 6,100 -550 Descending Potomac TRACON
Thu 11:12:05 AM 39.5000 -77.3500 191° South 244 281 6,000 -350 Descending Potomac TRACON
Thu 11:13:05 AM 39.4500 -77.3833 207° Southwest 230 265 5,400 -947 Descending Potomac TRACON
Thu 11:13:59 AM 39.3833 -77.4167 201° Southwest 228 262 4,200 -737 Descending Potomac TRACON
Thu 11:14:59 AM 39.3333 -77.4333 194° South 225 259 4,000 -200 Descending Potomac TRACON
Thu 11:15:59 AM 39.2667 -77.4333 180° South 216 249 3,800 -526 Descending Potomac TRACON
Thu 11:16:53 AM 39.2167 -77.4333 180° South 204 235 3,000 -417 Descending Potomac TRACON
Thu 11:17:54 AM 39.1667 -77.4333 180° South 183 211 3,000  Level Potomac TRACON
Thu 11:18:54 AM 39.1167 -77.4333 180° South 178 205 3,000 -250 Level Potomac TRACON
Thu 11:19:54 AM 39.0667 -77.4333 180° South 176 203 2,500 -684 Descending Potomac TRACON
Thu 11:20:48 AM 39.0167 -77.4333 180° South 170 196 1,700 -842 Descending Potomac TRACON
Thu 11:21:48 AM 38.9833 -77.4333 180° South 126 145 900 -800 Descending Potomac TRACON
Thu 11:23:00 AM 38.9474 -77.4599 90° East  Level Estimated
Thu 11:30:00 AM 38.9474 -77.4599 90° East  Level Estimated
Thu 11:31:00 AM 38.9474 -77.4599 90° East  Level Estimated

Login

Don't have an account? Register now (free) for customized features, flight alerts, and more!